1^ Diecimila del Campanile

Ponte San Giovanni (Pg) - 18 settembre 2011

Risultati a cura di DreamRenner Team

mappa e altimetria

 

foto 1   foto 2

 

Ordine d'arrivo generale maschile
Pos Cognome Nome Soc Cat Tempo RealTime Media
1 DEME DEREJE ETIOPIA A 00:29:31 00:29:31 2.57
2 BII PETER KENIA B 00:29:38 00:29:38 2.57
3 TALAH ABRAHAM KENIA A 00:29:59 00:29:59 2.59
4 KIMELI HOSEA KENIA A 00:30:43 00:30:43 3.04
5 MORCID MOHMED PRO PATRIA CUS MILANO A 00:32:02 00:32:02 3.12
6 EL MAKHROUT CHERKAOUI RUNNING CLUB FUTURA RM A 00:32:08 00:32:08 3.12
7 MARROUF ABEDRAIN RUNNING CLUB FUTURA RM A 00:32:25 00:32:25 3.13
8 EL MAKHROUT ABDELAZIZ ATHLETIC TERNI A 00:32:29 00:32:29 3.14
9 BUSSOLOTTO DORIANO ATL.POTENZA PICENA A 00:32:39 00:32:39 3.15
10 FALOMI SIMONE ATL. AVIS PERUGIA C 00:32:59 00:32:59 3.17
11 CARDELLI GIUSEPPE U.P. POLICIANO B 00:33:02 00:33:02 3.17
12 LUCCHETTI ANDREA TIFERNO RUNNERS B 00:33:24 00:33:24 3.19
13 MARIANELLI CRISTIAN OLYMPIC RUNNERS LAMA B 00:33:32 00:33:32 3.20
14 BARONI ALESSANDRO PRO PATRIA CUS MILANO A 00:33:34 00:33:34 3.20
15 CHECCARELLI ANTONIO LIBERTAS ORVIETO A 00:33:44 00:33:44 3.22
16 CERRINI FRANCESCO TIFERNO RUNNERS B 00:34:22 00:34:22 3.26
17 RAGNI MARCO DREAM RUNNERS PG A 00:34:26 00:34:26 3.26
18 DI PETRILLO ALBERTO ATL. VINCI FIRENZE C 00:34:31 00:34:31 3.27
19 MONTIONI CESARE ATL. CAPANNE PG A 00:34:49 00:34:49 3.28
20 SCORZIELLO FRANCO DREAM RUNNERS PG C 00:34:58 00:34:58 3.29
21 BENEDETTI PAOLO UISP ABBADIA S. SALVATORE C 00:35:04 00:35:03 3.30
22 GUERRINI GIUSEPPE MARATHON CLUB C. DI CASTELLO C 00:35:25 00:35:24 3.32
23 FIORUCCI ENRICO TIFERNO RUNNERS C 00:35:59 00:35:58 3.35
24 BALDELLI GIUSEPPE ATL. AVIS PERUGIA C 00:36:03 00:36:02 3.36
25 FINOCCHI SAURO ATL. AVIS PERUGIA E 00:36:06 00:36:06 3.36
26 LENTICCHI EROS DREAM RUNNERS PG A 00:36:07 00:36:07 3.36
27 TORTOIOLI MARCO ATL. AVIS PERUGIA B 00:36:09 00:36:09 3.36
28 BENEDETTI FERDINANDO ATL. AVIS PERUGIA D 00:36:13 00:36:13 3.37
29 LICATA GABRIELE GUBBIO RUNNERS B 00:36:17 00:36:16 3.37
30 FOSCA LORENZO ATL. SIDERMEC F.C. D 00:36:19 00:36:18 3.37
31 AMETRANO ALESSIO POD. CORCIANO A 00:36:20 00:36:16 3.38
32 TIBERI GIORGIO POD. AVIS FABRIANO AN B 00:36:20 00:36:19 3.38
33 MARIANI MIRKO ATL. ASAL FOLIGNO A 00:36:26 00:36:26 3.38
34 BETTACCHINI ANTONELLO TIFERNO RUNNERS C 00:36:28 00:36:28 3.38
35 SFONDALMONDO MASSIMILIANO ATL. AVIS PERUGIA C 00:36:29 00:36:28 3.38
36 SALARI PECCICA MICHELE POD. AVIS FABRIANO AN B 00:36:32 00:36:30 3.39
37 RECANATESI CRISTIANO DINAMIS FALCONARA B 00:36:49 00:36:47 3.40
38 MARINANGELI ADRIANO SATRINI GROUP ATHLETIC TREVI E 00:36:51 00:36:49 3.41
39 GIACOMETTI MARCO SPORT ATLETICA FERMO A 00:36:52 00:36:50 3.41
40 RALLO FRANCESCO ATL. AVIS PERUGIA E 00:36:57 00:36:55 3.41
41 MINCIOTTI MASSIMILIANO ATL. CAPANNE PG B 00:37:05 00:37:02 3.42
42 MASSETTI DANIELE ATLETA LIBERO B 00:37:08 00:36:59 3.42
43 MORANI EVIAN ASSISI RUNNERS B 00:37:14 00:37:13 3.43
44 BRAGETTI GIAMPIERO ATL. IL COLLE PERUGIA C 00:37:15 00:37:14 3.43
45 ORIOLI FAUSTO ATL. AVIS PERUGIA E 00:37:30 00:37:29 3.45
46 CIANCHETTI LUCA ATL. ISOLA D'ELBA A 00:37:42 00:37:42 3.46
47 MORONCINI FAUZIO ATL. ASAL FOLIGNO C 00:37:45 00:37:45 3.46
48 PALLOTTA ROBERTO POD. WINNER FOLIGNO D 00:37:51 00:37:47 3.47
49 TINELLI FABRIZIO ATL. SPOLETO 2010 C 00:37:54 00:37:52 3.47
50 CARPINELLI VIRGILIO AVIS SANSEPOLCRO D 00:37:55 00:37:53 3.47
51 BELLINI ROBERTO ESERCITO CE.SEL.NA FOLIGNO C 00:37:55 00:37:55 3.47
52 CIPICIANI FABRIZIO CDP-T&RB GROUP PG C 00:38:01 00:37:48 3.48
53 LATERZA LUIGI CDP-T&RB GROUP PG D 00:38:03 00:38:02 3.48
54 CAPORALETTI SIMONE UISPORT AVIS TODI B 00:38:08 00:38:03 3.48
55 CAMILLONI LIVIO DREAM RUNNERS PG A 00:38:17 00:38:12 3.49
56 FIORONI MASSIMO ATL. AVIS PERUGIA D 00:38:21 00:38:21 3.50
57 BERTOLINI ADEMARO CDP-T&RB GROUP PG F 00:38:22 00:38:22 3.50
58 SCASSELLATI VALERIO ATL. TAINO G.TADINO A 00:38:22 00:38:14 3.50
59 ANGELUCCI GABRIELE POD. WINNER FOLIGNO A 00:38:23 00:38:23 3.50
60 FRATINI FRANCESCO MARATHON CLUB C. DI CASTELLO A 00:38:28 00:38:28 3.50
61 MARIOLI STEFANO CDP-T&RB GROUP PG D 00:38:31 00:38:31 3.51
62 FRATINI DANIELE ATL. TAINO G.TADINO A 00:38:32 00:38:23 3.51
63 SCAPPINI IVAN ATL. AVIS PERUGIA B 00:38:33 00:38:30 3.51
64 FALLERI MASSIMILIANO MARATHON CLUB C. DI CASTELLO C 00:38:52 00:38:52 3.53
65 RICCI CARLO CDP-T&RB GROUP PG B 00:38:56 00:38:53 3.53
66 BIAGIONI MASSIMO ATL. TAINO G.TADINO B 00:38:57 00:38:48 3.53
67 DOLCIOTTI RENATO RUNNERS SANGEMINI TR C 00:38:59 00:38:56 3.53
68 PILLITTERI SALVATORE ESERCITO CE.SEL.NA FOLIGNO A 00:39:00 00:39:00 3.54
69 COVARELLI MAURO ATL. AVIS PERUGIA E 00:39:06 00:39:03 3.54
70 GIRELLI MARCO CDP-T&RB GROUP PG C 00:39:10 00:39:02 3.55
71 BARILARI DAVID GUBBIO RUNNERS B 00:39:15 00:39:14 3.55
72 D'AMICO GIOVANNI CDP-T&RB GROUP PG F 00:39:16 00:39:16 3.55
73 FANELLI RICCARDO ATL. AVIS PERUGIA F 00:39:24 00:39:23 3.56
74 PIRILLI ANDREA DREAM RUNNERS PG C 00:39:26 00:39:25 3.56
75 CASALINI SERGIO POD. WINNER FOLIGNO A 00:39:26 00:39:25 3.56
76 MARCANTONINI MAURO DREAM RUNNERS PG A 00:39:28 00:39:28 3.56
77 LORENZETTI TOMMASO ATL. ASAL FOLIGNO A 00:39:32 00:39:32 3.57
78 MATTIOLI CLAUDIO SATRINI GROUP ATHLETIC TREVI E 00:39:34 00:39:32 3.57
79 BAZZUCCHI MAURO A.S.P.A. BASTIA U. PG D 00:39:36 00:39:36 3.57
80 CRICCHI STEFANO ATL. AVIS PERUGIA D 00:39:37 00:39:34 3.57
81 MAZZOLENI FULVIO POD. CORCIANO C 00:39:38 00:39:30 3.57
82 GAGLIESI GIANNI ATL. IL COLLE PERUGIA D 00:39:39 00:39:36 3.57
83 PORTOGHESE GIUSEPPE ATL. CAPANNE PG B 00:39:39 00:39:37 3.57
84 CAPANNELLI GIORGIO GUBBIO RUNNERS B 00:39:47 00:39:46 3.58
85 ZOCCOLINI MICHELE ATL. CAPANNE PG B 00:39:50 00:39:46 3.59
86 COMANDUCCI ALESSIO MARATHON CLUB C. DI CASTELLO D 00:39:52 00:39:45 3.59
87 CAMBIOTTI MAURO ATL. AVIS PERUGIA G 00:39:53 00:39:51 3.59
88 BETTI ANDREA POD. WINNER FOLIGNO C 00:39:54 00:39:50 3.59
89 POLTICCHIA ROBERTO CDP-T&RB GROUP PG D 00:39:58 00:39:54 3.59
90 SALUSTRI MORENO POD. WINNER FOLIGNO D 00:39:59 00:39:57 3.59
91 CANAFOGLIA VALERIO POD. WINNER FOLIGNO A 00:40:00 00:39:59 4.00
92 BENEDETTI STEFANO ATL. IL COLLE PERUGIA C 00:40:04 00:40:04 4.00
93 ANGELUZZI MASSIMO RUNNERS SANGEMINI TR D 00:40:09 00:40:08 4.00
94 FRENGUELLI FRANCO ATL. AVIS PERUGIA F 00:40:16 00:40:14 4.01
95 SFODERA MARCO POD. CORCIANO B 00:40:21 00:40:02 4.02
96 TOMASSOLI MASSIMILIANO CDP-T&RB GROUP PG C 00:40:29 00:40:27 4.02
97 INGROSSO ALESSANDRO ATL. TAINO G.TADINO A 00:40:34 00:40:27 4.03
98 BRUSCHI EZIO TIFERNO RUNNERS D 00:40:37 00:40:30 4.03
99 BENDINI MARIO POD. WINNER FOLIGNO D 00:40:39 00:40:24 4.03
100 CONTI STEFANO ATL. CAPANNE PG E 00:40:40 00:40:38 4.04
101 DONADIO STEFANO DREAM RUNNERS PG B 00:40:40 00:40:36 4.04
102 BETTINI ROBERTO UISPORT AVIS TODI A 00:40:44 00:40:39 4.04
103 NIZI STEFANO ATL. ASAL FOLIGNO A 00:40:45 00:40:45 4.04
104 BINACCI MASSIMO ATL. AVIS PERUGIA D 00:40:48 00:40:47 4.04
105 LIBERTI PAOLO ATL. AVIS PERUGIA A 00:40:50 00:40:48 4.05
106 COCCIOLO ISMAELE POD. CARSULAE TR C 00:40:52 00:40:41 4.05
107 MANGIALASCHE ALFONSO CDP-T&RB GROUP PG G 00:40:52 00:40:52 4.05
108 GRANIERI FABRIZIO UISPORT AVIS TODI C 00:40:53 00:40:44 4.05
109 TROMBETTONI LUCA UISPORT AVIS TODI D 00:40:56 00:40:55 4.05
110 STEFANETTI STEFANO POD. AVIS FABRIANO AN E 00:40:57 00:40:53 4.05
111 LANTI DANIELE ATL. AVIS PERUGIA D 00:40:57 00:40:55 4.05
112 GIANLUIGI AQULINI POD. WINNER FOLIGNO B 00:41:01 00:40:57 4.06
113 ALUNNO ANGELO AP.PONTE FELCINO F 00:41:03 00:41:01 4.06
114 SAKHI AZEDDINE MARATHON CLUB C. DI CASTELLO C 00:41:08 00:41:04 4.06
115 MERCANTINI FRANCO POD. CARSULAE TR D 00:41:10 00:41:06 4.07
116 PAONE EMILIO MARATHON CLUB C. DI CASTELLO B 00:41:10 00:41:04 4.07
117 CERAMI DANIELE POD. LINO SPAGNOLI PG B 00:41:12 00:41:06 4.07
118 CARLETTINI STEFANO CDP-T&RB GROUP PG D 00:41:19 00:41:17 4.07
119 PINACOLI CARLO ALBERTO ATL. TAINO G.TADINO C 00:41:23 00:41:18 4.08
120 NUCCIARELLI PIERLUIGI ASD APPERDIFIATO ASSISI A 00:41:23 00:41:07 4.08
121 MANZETTI BRUNO SATRINI GROUP ATHLETIC TREVI I 00:41:29 00:41:25 4.08
122 ARCELLI FABRIZIO ATL. AVIS PERUGIA D 00:41:31 00:41:30 4.09
123 LOSITO CORRADO CDP-T&RB GROUP PG C 00:41:34 00:41:29 4.09
124 RICCIARELLI ROCCO POD. AVIS DERUTA A 00:41:34 00:41:28 4.09
125 SCARPELLONI MAURO A.S.P.A. BASTIA U. PG E 00:41:37 00:41:37 4.09
126 NOFRINI SIMONE DREAM RUNNERS PG B 00:41:38 00:41:29 4.09
127 DURANTI ROBERTO ATL. IL COLLE PERUGIA C 00:41:39 00:41:31 4.09
128 ANGELONI GIUSEPPE GUBBIO RUNNERS C 00:41:40 00:41:25 4.10
129 SERVO MASSIMILIANO POD. LINO SPAGNOLI PG C 00:41:42 00:41:39 4.10
130 LEONARDI ROBERTO MARATHON CLUB C. DI CASTELLO B 00:41:47 00:41:43 4.10
131 ANTONINI GIANLUCA ASSISI RUNNERS B 00:41:55 00:41:42 4.11
132 MENICHINI DARIO ATL. AVIS PERUGIA B 00:41:57 00:41:49 4.11
133 GIOVANNINI LORENZO CDP-T&RB GROUP PG B 00:41:57 00:41:52 4.11
134 MONOTTI LUCA ATL. AVIS PERUGIA C 00:42:01 00:41:54 4.12
135 MIGLIORATI FRANCK MARATHON CLUB C. DI CASTELLO C 00:42:02 00:41:58 4.12
136 PIGINI ALVARO UISPORT AVIS TODI E 00:42:04 00:41:51 4.12
137 MARCHETTI FABIO ASSISI RUNNERS E 00:42:10 00:41:58 4.13
138 MORETTINI FABIO A.S.P.A. BASTIA U. PG B 00:42:12 00:42:05 4.13
139 FAZI MAURO ATL. TAINO G.TADINO C 00:42:14 00:42:05 4.13
140 GIGLIETTI SECONDO ATL. AVIS PERUGIA G 00:42:17 00:42:14 4.13
141 FINAURO CARLO SATRINI GROUP ATHLETIC TREVI D 00:42:28 00:42:05 4.14
142 MARIANI MASSIMO POD. LINO SPAGNOLI PG D 00:42:29 00:42:23 4.14
143 GUERCINI BRUNO ATL. IL COLLE PERUGIA G 00:42:30 00:42:28 4.15
144 MAGGI MASSIMO ATL. AVIS PERUGIA B 00:42:34 00:42:33 4.15
145 BARONI TIZIANO C.U.S. S. MARTINO PG E 00:42:35 00:42:23 4.15
146 PANCIAROLA FABIO CDP-T&RB GROUP PG C 00:42:38 00:42:29 4.15
147 MASSETTI SANDRO MARATHON CLUB C. DI CASTELLO E 00:42:48 00:42:42 4.16
148 CASTELLANI GIOVANNI ATL. IL COLLE PERUGIA D 00:42:52 00:42:41 4.17
149 BRUTTI LUCIANO CDP-T&RB GROUP PG F 00:42:54 00:42:51 4.17
150 SGUILLA ENZO ATL. AVIS PERUGIA G 00:42:56 00:42:49 4.17
151 NATALICCHI CESARE DREAM RUNNERS PG F 00:42:58 00:42:54 4.17
152 CELLAMARE ANTONIO ESERCITO CE.SEL.NA FOLIGNO B 00:42:59 00:42:56 4.17
153 CIOCCOLONI SANDRO ATL. AVIS PERUGIA E 00:43:01 00:42:41 4.18
154 MARTINI ROBERTO POD. AVIS DERUTA C 00:43:04 00:42:59 4.18
155 BOGINI RICCARDO CDP-T&RB GROUP PG A 00:43:04 00:43:01 4.18
156 PELLICCIA SERGIO ATL. AVIS PERUGIA D 00:43:07 00:43:04 4.18
157 BUCCHI AMEDEO POD. AVIS FABRIANO AN E 00:43:09 00:43:08 4.18
158 LAURIOLA LIBERO ATL. AVIS PERUGIA E 00:43:11 00:43:00 4.19
159 GRADASSI MAURO ATL. IL COLLE PERUGIA E 00:43:14 00:43:11 4.19
160 LUCCHETTI PATRIZIO OLYMPIC RUNNERS LAMA D 00:43:14 00:43:07 4.19
161 GAROFANINI FRANCESCO AP.PONTE FELCINO A 00:43:19 00:43:12 4.19
162 PACCHIA ALESSANDRO POD. WINNER FOLIGNO C 00:43:21 00:43:07 4.20
163 FIORI LEONARDO ATL. CAPANNE PG D 00:43:22 00:43:14 4.20
164 GOSTINELLI ROBERTO ATL. IL COLLE PERUGIA C 00:43:25 00:43:10 4.20
165 BURA DAVID POD. LINO SPAGNOLI PG A 00:43:26 00:43:20 4.20
166 PIAMPIANO MORENO CDP-T&RB GROUP PG C 00:43:26 00:43:18 4.20
167 PASQUETTI PASQUALE ATL. GARDENIA PG F 00:43:29 00:43:22 4.20
168 BOSCO SABINO ASSISI RUNNERS D 00:43:33 00:43:18 4.21
169 MANFUCCI SAURO MARATHON CLUB C. DI CASTELLO F 00:43:37 00:43:34 4.21
170 BIANCHI MASSIMO ASSISI RUNNERS D 00:43:39 00:43:26 4.21
171 BOSCHETTI FRANCESCO POD. LINO SPAGNOLI PG C 00:43:42 00:43:34 4.22
172 TOGNOLONI ITALO ATL. AVIS PERUGIA H 00:43:43 00:43:43 4.22
173 CHIAVINI ADRIANO A.S.P.A. BASTIA U. PG F 00:43:44 00:43:44 4.22
174 CORRIERI STEFANO POD. AVIS FABRIANO AN C 00:43:48 00:43:38 4.22
175 DENTINI MARCO UISPORT AVIS TODI C 00:43:50 00:43:36 4.23
176 PASCUCCI LEANDRO ATL. ASAL FOLIGNO G 00:43:53 00:43:42 4.23
177 MASSACCESI CLAUDIO G.S. A. MONTI TR E 00:43:56 00:43:53 4.23
178 CAPORALETTI FRANCESCO ATL. IL COLLE PERUGIA A 00:43:57 00:43:49 4.23
179 ROSATI MARCO GUBBIO RUNNERS C 00:43:58 00:43:47 4.23
180 ROSIGNOLI FRANCESCO A.S.P.A. BASTIA U. PG E 00:43:58 00:43:45 4.23
181 VECCHINI SERGIO MARATHON CLUB C. DI CASTELLO C 00:43:59 00:43:54 4.23
182 MENDICINO SALVATORE ALTETA LIBERO E 00:44:00 00:43:44 4.24
183 CANCELLONI MARCELLO ATL. AVIS PERUGIA B 00:44:03 00:43:47 4.24
184 POPONESI FILIPPO ATL. AVIS PERUGIA C 00:44:03 00:43:51 4.24
185 BRUNETTI MARCO CDP-T&RB GROUP PG C 00:44:09 00:43:55 4.24
186 ROSSETTI GIACOMO ATL. AVIS PERUGIA C 00:44:14 00:44:08 4.25
187 SAPORITI SALVATORE POD. LINO SPAGNOLI PG G 00:44:17 00:44:12 4.25
188 MATTEUCCI TOMMASO POD. LINO SPAGNOLI PG A 00:44:17 00:44:11 4.25
189 TITTI ALFREDO POD. AVIS FABRIANO AN D 00:44:21 00:44:17 4.26
190 SALVATORI DARIO ATL. IL COLLE PERUGIA D 00:44:21 00:44:13 4.26
191 SARGENTI AUGUSTO ATL. IL COLLE PERUGIA F 00:44:26 00:44:17 4.26
192 CECCARELLI PAOLO ATL. AVIS PERUGIA C 00:44:39 00:44:28 4.27
193 FIORUCCI GIANMARCO GUBBIO RUNNERS C 00:44:53 00:44:42 4.29
194 MARCANTONINI PAOLO ATL. CAPANNE PG C 00:44:54 00:44:47 4.29
195 MARIANGELONI ALFIO ATL. AVIS PERUGIA C 00:45:01 00:44:53 4.30
196 BRANDI SECONDO POD. AVIS FABRIANO AN E 00:45:04 00:44:54 4.30
197 CAPORALI MARCO A.S.P.A. BASTIA U. PG A 00:45:06 00:44:44 4.30
198 BERTA PAOLO MARATHON CLUB C. DI CASTELLO D 00:45:06 00:45:03 4.30
199 FASTELLINI PAOLO DREAM RUNNERS PG A 00:45:06 00:44:59 4.30
200 LEONARDI LORENZO G.P. LUCREZIA PU E 00:45:06 00:45:05 4.30
201 POGGIANTI FRANCESCO POD. CORCIANO D 00:45:12 00:44:49 4.31
202 BURATTINI ROMUALDO POD. AVIS FABRIANO AN G 00:45:16 00:45:14 4.31
203 ALESTRA GIACOMO POD. WINNER FOLIGNO G 00:45:17 00:45:17 4.31
204 VISCONTI LUCIANO ESERCITO CE.SEL.NA FOLIGNO B 00:45:19 00:45:18 4.31
205 PALLERI LUCIANO OLYMPIC RUNNERS LAMA F 00:45:22 00:45:22 4.32
206 STRACCINI LUCIANO UISP TERNI C 00:45:22 00:45:19 4.32
207 ESPOSITO PAOLO AMATORI VESUVIO NA B 00:45:24 00:45:14 4.32
208 FALCINELLI MARCO ASSISI RUNNERS A 00:45:25 00:45:14 4.32
209 GALLI SERGIO CDP-T&RB GROUP PG B 00:45:26 00:45:18 4.32
210 PAGNOTTA LUCA POD. LINO SPAGNOLI PG A 00:45:28 00:45:11 4.32
211 CAIOTTI ANDREA MARATHON CLUB C. DI CASTELLO B 00:45:33 00:45:26 4.33
212 CIABATTA FABIO ATL. AVIS PERUGIA E 00:45:37 00:45:25 4.33
213 DE ANGELIS LEONARDO POD. CARSULAE TR D 00:45:37 00:45:25 4.33
214 MATTIOLI FIBIO SATRINI GROUP ATHLETIC TREVI A 00:45:40 00:45:36 4.34
215 PAZZAGLIA ROBERTO MARATHON CLUB C. DI CASTELLO E 00:45:42 00:45:21 4.34
216 BOTTACCIOLI CARLO ATL. AVIS PERUGIA C 00:45:49 00:45:21 4.34
217 ATZEI ANGELO GUBBIO RUNNERS D 00:45:52 00:45:43 4.35
218 RICCI RICCARDO ASSISI RUNNERS C 00:45:54 00:45:40 4.35
219 CERBINI STEFANO ATL. AVIS PERUGIA C 00:45:59 00:45:52 4.35
220 BURANI DAVID POD. AVIS DERUTA E 00:45:59 00:45:42 4.35
221 MIGLIAROTTI SERGIO MARATHON CLUB C. DI CASTELLO E 00:46:01 00:45:41 4.36
222 ROGARI CRISTIAN ATL. LIBERTAS ARCS B 00:46:02 00:45:44 4.36
223 MANDOLINI STEFANO G.P. AVIS CASTELRAIMONDO E 00:46:02 00:45:50 4.36
224 SANTAGA' ANTONIO ATL. CAPANNE PG E 00:46:04 00:45:46 4.36
225 PORFIRI MAURO A.S.P.A. BASTIA U. PG C 00:46:05 00:45:45 4.36
226 CANAPARI FRANCESCO ATL. AVIS PERUGIA E 00:46:06 00:45:53 4.36
227 BERGINI MAURIZIO ESERCITO CE.SEL.NA FOLIGNO B 00:46:09 00:45:56 4.36
228 CASTELLONE SALVATORE ATL. IL COLLE PERUGIA A 00:46:14 00:46:00 4.37
229 PALAZZETTI GIANLUCA ATL. CAPANNE PG D 00:46:14 00:45:59 4.37
230 BECCAFICHI MAURIZIO VOLUMNIA SERICP E 00:46:17 00:45:55 4.37
231 MINELLI ALESSIO ATL. AVIS PERUGIA A 00:46:19 00:46:03 4.37
232 PIORICO ANDREA C.U.S. PERUGIA D 00:46:19 00:46:11 4.37
233 GUERRIERI ALESSIO MARATHON CLUB C. DI CASTELLO B 00:46:23 00:46:18 4.38
234 MOGINI FABIO ATL. AVIS PERUGIA C 00:46:26 00:46:18 4.38
235 PISANI EMILIO ATL. CAPANNE PG C 00:46:28 00:46:02 4.38
236 PAOLONI PIERO ATL. CAPANNE PG D 00:46:29 00:46:03 4.38
237 FALASCHI DANIELE CDP-T&RB GROUP PG C 00:46:30 00:46:11 4.39
238 BRUNELLI MARCO GUBBIO RUNNERS C 00:46:31 00:46:21 4.39
239 MAZZOCCHIO GIAN LUCA POD. WINNER FOLIGNO C 00:46:32 00:46:19 4.39
240 COSTANTINI MARCO AP.PONTE FELCINO D 00:46:33 00:46:31 4.39
241 POMPEI GIANCARLO ATL. TAINO G.TADINO D 00:46:36 00:46:26 4.39
242 TRINARI WALTER ATL. IL COLLE PERUGIA C 00:46:37 00:46:23 4.39
243 FONTANA SALVATORE ESERCITO CE.SEL.NA FOLIGNO D 00:46:38 00:46:18 4.39
244 FIORDI FABIO CDP-T&RB GROUP PG D 00:46:38 00:46:30 4.39
245 RIDOLFI MASSIMO A.S.P.A. BASTIA U. PG D 00:46:40 00:46:25 4.40
246 CENCIARINI SIMONE ATLETA LIBERO C 00:46:43 00:46:23 4.40
247 CAGIOLA LUCA POD. AVIS DERUTA B 00:46:45 00:46:28 4.40
248 CANDI SILVANO ASSISI RUNNERS C 00:46:47 00:46:34 4.40
249 PIERELLI VINICIO ATL. TAINO G.TADINO F 00:46:48 00:46:46 4.40
250 VARZI LORENZO MARATHON CLUB C. DI CASTELLO B 00:46:49 00:46:44 4.40
251 LIPPERA PAOLO POD. AVIS FABRIANO AN E 00:46:50 00:46:49 4.41
252 TOCCACELI BRUNO G.P. LUCREZIA PU E 00:46:51 00:46:37 4.41
253 TESTA UMBERTO POD. WINNER FOLIGNO C 00:46:53 00:46:35 4.41
254 CARDAIOLI DANILO ATL. IL COLLE PERUGIA D 00:46:57 00:46:31 4.41
255 PAZZAGLIA SERGIO POD. WINNER FOLIGNO D 00:47:00 00:46:49 4.42
256 BALLELLI SANDRO POD. AVIS FABRIANO AN H 00:47:01 00:47:00 4.42
257 BIAGIONI RICCARDO ATLETA LIBERO A 00:47:04 00:46:44 4.42
258 NUCCI LUCIO POD. CORCIANO D 00:47:04 00:46:39 4.42
259 RICCI MAURO UISPORT AVIS TODI B 00:47:04 00:46:51 4.42
260 MACCHIONI CLAUDIO ATL. AVIS PERUGIA A 00:47:05 00:46:57 4.42
261 GASBARRO MASSIMO CDP-T&RB GROUP PG C 00:47:07 00:46:48 4.42
262 SDRINGOLA SIMONE POD. AVIS DERUTA C 00:47:12 00:46:56 4.43
263 COLETTI PAOLO ATL. AVIS PERUGIA D 00:47:13 00:46:53 4.43
264 BRUNACCI MAURIZIO ASSISI RUNNERS D 00:47:15 00:47:01 4.43
265 MENCONI ANTONELLO CDP-T&RB GROUP PG C 00:47:16 00:47:02 4.43
266 BIAGINI FILIPPO POD. CORCIANO A 00:47:17 00:47:09 4.43
267 MARCHETTI LUCA ASSISI RUNNERS C 00:47:20 00:47:07 4.44
268 DONATINI ENZO ATLETA LIBERO I 00:47:23 00:47:22 4.44
269 FADDA ANDREA MARATHON CLUB C. DI CASTELLO D 00:47:25 00:47:03 4.44
270 VARZI LUCA MARATHON CLUB C. DI CASTELLO D 00:47:26 00:47:06 4.44
271 ROSI FEDERICO ASSISI RUNNERS C 00:47:32 00:47:17 4.45
272 DENTINI MAURO ATL. AVIS PERUGIA H 00:47:40 00:47:35 4.46
273 RANCHELLA FABIO CDP-T&RB GROUP PG C 00:47:43 00:47:34 4.46
274 ROSSI PIERLUIGI POD. AVIS DERUTA B 00:47:43 00:47:36 4.46
275 CAPORALETTI ALESSANDRO SATRINI GROUP ATHLETIC TREVI E 00:47:43 00:47:37 4.46
276 AMMIRATI CLAUDIO UISPORT AVIS TODI C 00:47:45 00:47:31 4.46
277 TORTOLINI ENRICO ESERCITO CE.SEL.NA FOLIGNO D 00:47:45 00:47:27 4.46
278 CHIOCCI MARCELLO CDP-T&RB GROUP PG G 00:47:47 00:47:38 4.46
279 COMPAROZZI EDOARDO POD. LINO SPAGNOLI PG D 00:47:52 00:47:47 4.47
280 DI BARNABA ALESSIO ATL. AVIS PERUGIA A 00:47:58 00:47:37 4.47
281 PASSERINI STEFANO ATL. AVIS PERUGIA C 00:48:08 00:47:52 4.48
282 FERRETTI GIANNI POD. WINNER FOLIGNO C 00:48:10 00:47:47 4.49
283 ORCIDI FABRIZIO CDP-T&RB GROUP PG F 00:48:16 00:47:54 4.49
284 TORZONI GIOVANNI VOLUMNIA SERICP E 00:48:24 00:48:01 4.50
285 SIROTI FABIEN ATL. SPOLETO 2010 C 00:48:24 00:48:21 4.50
286 FAGGIONI ALFIO POD. AVIS FABRIANO AN H 00:48:27 00:48:27 4.50
287 CAPANNELLI ANTONELLO A.S.P.A. BASTIA U. PG B 00:48:28 00:48:00 4.50
288 KROSEC ALESSANDRO ESERCITO CE.SEL.NA FOLIGNO D 00:48:29 00:48:10 4.50
289 MOSCATI PAOLO POD. LINO SPAGNOLI PG D 00:48:30 00:48:11 4.51
290 LESSANDRELLI MARIO ATL. AVIS PERUGIA G 00:48:34 00:48:25 4.51
291 STINCHETTI MASSIMO AP.PONTE FELCINO D 00:48:39 00:48:16 4.51
292 CICIONI ROBERTO POD. LINO SPAGNOLI PG D 00:48:42 00:48:36 4.52
293 TORRICELLI RENZO ATL. AVIS PERUGIA F 00:48:52 00:48:25 4.53
294 VAGNARELLI STEFANO GUBBIO RUNNERS C 00:48:56 00:48:45 4.53
295 BISCARINI LUCIANO ATL. AVIS PERUGIA G 00:49:03 00:48:54 4.54
296 ROSSI GIANLUCA A.S.P.A. BASTIA U. PG C 00:49:03 00:48:35 4.54
297 FUCINI STEFANO ATL. AVIS PERUGIA A 00:49:07 00:48:52 4.54
298 MARIANGELONI MARCO ATL. AVIS PERUGIA B 00:49:08 00:48:44 4.54
299 BISCARINI ENRICO ATL. IL COLLE PERUGIA E 00:49:13 00:49:04 4.55
300 CHINAIA CARLO POD. LINO SPAGNOLI PG A 00:49:15 00:48:57 4.55
301 BELLACHIOMA ENZO ATL. LIBERTAS ARCS F 00:49:21 00:49:15 4.56
302 CAMILLI GIANCARLO POD. AVIS FABRIANO AN G 00:49:23 00:49:07 4.56
303 CATOCCHIA STEFANO ATLETA LIBERO C 00:49:26 00:48:55 4.56
304 MORELLI MORENO GUBBIO RUNNERS C 00:49:34 00:49:15 4.57
305 FRANCIONI ANGELO POD. WINNER FOLIGNO F 00:49:45 00:49:21 4.58
306 CENCI LEONARDO ATL. AVIS PERUGIA B 00:49:49 00:49:23 4.58
307 TESSADORI ROMUALDO ATL. AVIS PERUGIA E 00:49:52 00:49:43 4.59
308 PELLICCIA MARCO ATL. AVIS PERUGIA E 00:49:53 00:49:32 4.59
309 SEPICACCHI LORENZO POD. AVIS DERUTA A 00:49:58 00:49:32 4.59
310 MORONI BRUNO ATL. CAPANNE PG H 00:49:59 00:49:43 4.59
311 CESARINI ALBERTO ATLETA LIBERO C 00:50:01 00:49:36 5.00
312 GONNELLINI ANDREA CDP-T&RB GROUP PG B 00:50:01 00:49:46 5.00
313 ORTICA ADRIANO ATL. IL COLLE PERUGIA H 00:50:01 00:49:59 5.00
314 BARRECA PAOLO GIUSEPPE POD. CORCIANO E 00:50:02 00:49:54 5.00
315 PEDINI DAMIANO ATLETA LIBERO C 00:50:03 00:49:39 5.00
316 VASELLI LUCA ARCS STROZZACAPPONI B 00:50:04 00:49:47 5.00
317 CASTRABERTE FAUSTO DREAM RUNNERS PG F 00:50:05 00:50:02 5.00
318 GARGAGLIA SIMONE ATL. AVIS PERUGIA B 00:50:06 00:49:39 5.00
319 GRAMACCIA CORRADO UISPORT AVIS TODI H 00:50:08 00:49:53 5.00
320 STACCIOLI GIOVANNI A.P. PONTEFELCINO PG F 00:50:16 00:49:52 5.01
321 VISCONTI CARLO A.S.P.A. BASTIA U. PG D 00:50:17 00:49:49 5.01
322 URICI ERMAL POD. CORCIANO A 00:50:21 00:50:17 5.02
323 PASSARIELLO FRANCESCO POD. LINO SPAGNOLI PG F 00:50:22 00:50:05 5.02
324 TRACOLLI GIAMPIERO SATRINI GROUP ATHLETIC TREVI D 00:50:25 00:50:06 5.02
325 PICCINI FRANCO ATL. CAPANNE PG E 00:50:27 00:50:08 5.02
326 ANDRICCIOLA GIOVANNI A.S.P.A. BASTIA U. PG E 00:50:28 00:50:16 5.02
327 CRESCENZO PAPALE POD. AVIS FABRIANO AN C 00:50:29 00:50:18 5.02
328 MANTOVANI NAZZARENO A.S.P.A. BASTIA U. PG F 00:50:32 00:50:05 5.03
329 PEDUCCI MAURIZIO CDP-T&RB GROUP PG G 00:50:34 00:50:24 5.03
330 GORACCI GIANCARLO CDP-T&RB GROUP PG F 00:50:48 00:50:18 5.04
331 SERLUPINI ANTONIO A.S.P.A. BASTIA U. PG I 00:50:50 00:50:50 5.05
332 CUSSIA FRANCESCO ATLETA LIBERO D 00:50:53 00:50:38 5.05
333 FEDERICI LUCA ATLETA LIBERO B 00:50:55 00:50:40 5.05
334 DI BACCO CORRADO CDP-T&RB GROUP PG C 00:51:04 00:50:49 5.06
335 CHIOCCI ALESSIO CDP-T&RB GROUP PG A 00:51:08 00:50:56 5.06
336 ROSSI FRANCESCO A.S.P.A. BASTIA U. PG E 00:51:17 00:50:48 5.07
337 LIBEROTTI GIUSEPPE POD. CARSULAE TR E 00:51:20 00:51:09 5.08
338 GALIOTTO DANIELE ATL. TAINO G.TADINO A 00:51:24 00:50:59 5.08
339 TARTAGLINI CARLO POD. WINNER FOLIGNO G 00:51:38 00:51:15 5.09
340 MORELLI GIACOMO ATL. AVIS PERUGIA D 00:51:42 00:51:20 5.10
341 PETTINELLI ANDREA A.S.P.A. BASTIA U. PG A 00:52:03 00:51:41 5.12
342 PETRILIGGERI PIETRO AP.PONTE FELCINO E 00:52:22 00:51:58 5.14
343 LIBERTI RENZO CDP-T&RB GROUP PG G 00:52:41 00:52:35 5.16
344 CHIAVINI UMBERTO AUGUSTA PERUSIA C 00:52:45 00:52:34 5.16
345 UMIDINI FRANCESCO ATLETA LIBERO A 00:52:55 00:52:43 5.17
346 CARCHEDI FABIO POD. CARSULAE TR D 00:52:58 00:52:38 5.17
347 PAPA SIMONE A.S.P.A. BASTIA U. PG A 00:53:08 00:52:44 5.18
348 LUCACCIONI FEDERICO MARATHON CLUB C. DI CASTELLO B 00:53:17 00:52:57 5.19
349 CIRIMBILLI ALBERTO CDP-T&RB GROUP PG I 00:53:26 00:53:17 5.20
350 BIANCHINI BRUNO POD. CARSULAE TR F 00:53:37 00:53:15 5.21
351 GINI ANGELO ASSISI RUNNERS D 00:53:50 00:53:36 5.23
352 CAPORALI CARLO ATL. AVIS PERUGIA E 00:53:57 00:53:44 5.23
353 PERA FRANCESCO ATL. AVIS PERUGIA E 00:54:05 00:53:38 5.24
354 BRUNORI RINO C.U.S. S. MARTINO PG H 00:54:21 00:54:00 5.26
355 TAGLIONI GIUSEPPE POD. LINO SPAGNOLI PG D 00:55:34 00:55:26 5.33
356 ALLEGRUCCI FEDERICO GUBBIO RUNNERS C 00:55:41 00:55:13 5.34
357 CALIGIANI GIANCARLO CDP-T&RB GROUP PG I 00:55:42 00:55:14 5.34
358 FIORENTINI LORENZO ATL. IL COLLE PERUGIA A 00:56:01 00:55:47 5.36
359 MATTEI MAURIZIO ESERCITO CE.SEL.NA FOLIGNO E 00:56:06 00:55:48 5.36
360 NATALI NOVELLO A.S.P.A. BASTIA U. PG H 00:56:06 00:56:05 5.36
361 MORBIDINI LUCIO ATL. LIBERTAS ARCS F 00:56:11 00:55:52 5.37
362 ORIOLI SERGIO ATL. CAPANNE PG E 00:57:18 00:57:05 5.43
363 MONTAGNA MAURO CDP-T&RB GROUP PG A 00:57:25 00:57:12 5.44
364 MENCARINI PAOLO